AirNav   MODERNIZE NOT PRIVATIZE ATC
 
 1641 users online  

6FL7 Timmer Heliport
Lake Wales, Florida, USA


FAA INFORMATION EFFECTIVE 20 JULY 2017

Location

FAA Identifier: 6FL7
Lat/Long: 27-50-04.8100N / 081-26-15.1200W
27-50.080167N / 081-26.252000W
27.8346694 / -81.4375333
(estimated)
Elevation: 104 ft. / 32 m (estimated)
From city: 9 miles NW of LAKE WALES, FL
Time zone: UTC -4 (UTC -5 during Standard Time)
Zip code: 33859

Heliport Operations

Heliport use: Private use. Permission required prior to landing
Activation date: 11/2005
Control tower: no
ARTCC: MIAMI CENTER
FSS: SAINT PETERSBURG FLIGHT SERVICE STATION
Attendance: UNATNDD
Wind indicator: yes
Segmented circle: no

Heliport Communications

WX AWOS-3 at X07 (10 nm W): 124.225 (863-678-1334)
WX AWOS-3 at AVO (15 nm S): 118.725 (863-453-4223)
WX AWOS-3 at BOW (19 nm W): 123.775 (863-533-9004)

Nearby radio navigation aids

VOR radial/distance  VOR name  Freq  Var
LALr106/31.9LAKELAND VORTAC116.0001E

Heliport Services

Runway Information

Helipad H1

Dimensions: 465 x 160 ft. / 142 x 49 m
Surface: turf
Traffic pattern: leftleft

Heliport Ownership and Management from official FAA records

Ownership: Privately-owned
Owner: WILLIAM TIMMER
3025 SCRUB OAK LANE
LAKE WALES, FL 33898
Phone 863-207-0441
Manager: WILLIAM TIMMER
3025 SCRUB OAK LANE
LAKE WALES, FL 33898
Phone 863-207-0441

Heliport Operational Statistics

Aircraft based on the field: 1
Helicopters: 1
    

Additional Remarks

LAND TO THE EAST.
35 FT TREES LCTD 465 FT FM HELIPAD AT 093 AND 273 DEGS.
OWNER DESIRES HELIPORT NOT BE CHARTED.

Instrument Procedures

There are no published instrument procedures at 6FL7.

Some nearby airports with instrument procedures:

X07 - Lake Wales Municipal Airport (10 nm W)
KAVO - Avon Park Executive Airport (15 nm S)
KBOW - Bartow Municipal Airport (19 nm W)
KGIF - Winter Haven's Gilbert Airport (22 nm NW)
KSEF - Sebring Regional Airport (23 nm S)
 
Loc | Ops | Rwys | IFR | FBO | Links
Com | Nav | Svcs | Stats | Notes


 
Area around 6FL7 (Timmer Heliport)
 
Road maps at: MapQuest Bing Google
 
Aerial photo
No photo
 
Sectional chart

 
Airport distance calculator
Flying to Timmer Heliport? Find the distance to fly.

From to 6FL7

Sunrise and sunset
Times for 26-Jul-2017
 Local
(UTC-4)
 Zulu
(UTC)
Morning civil twilight06:2110:21
Sunrise06:4610:46
Sunset20:1800:18
Evening civil twilight20:4400:44

Current date and time
Zulu (UTC)  26-Jul-2017 20:02:45
Local (UTC-4)  26-Jul-2017 16:02:45
 
METAR
KBOW 
18nm W 
261950Z 31006KT 10SM SCT035 34/22 A3004
KGIF 
22nm NW 
261953Z AUTO 32005KT 10SM SCT055 34/21 A3005 RMK AO2 LTG DSNT SE SLP171 T03440211
KSEF 
23nm S 
261955Z AUTO 19004KT 10SM CLR 36/21 A3003 RMK AO2 LTG DSNT NE T03620208
KISM 
27nm N 
261956Z 20004KT 10SM BKN049 BKN060 35/24 A3004 RMK AO2 LTG DSNT NE SLP173 T03500239
KLAL 
32nm W 
261950Z 26003KT 10SM SCT050 34/22 A3004
KMCO 
35nm N 
261953Z 25004KT 10SM SCT047TCU BKN090 BKN300 33/23 A3004 RMK AO2 LTG DSNT NE AND E SLP169 TCU E AND SW T03330233
TAF
KISM 
27nm N 
261720Z 2618/2718 VRB05KT P6SM SCT030 SCT300 FM261900 20007KT P6SM SCT050 SCT300 TEMPO 2621/2624 P6SM TS BKN050CB FM270000 15005KT P6SM SCT050 BKN300 FM270600 VRB04KT P6SM SKC
KLAL 
32nm W 
261738Z 2618/2718 VRB03KT P6SM VCTS SCT045CB SCT250 FM262100 23005KT P6SM VCTS BKN045CB FM270300 VRB03KT P6SM BKN035 FM271100 VRB03KT P6SM BKN045
NOTAMs
Click for the latest NOTAMs
NOTAMs are issued by the DoD/FAA and will open in a separate window not controlled by AirNav.

 

 
 

Would you like to see your business listed on this page?

 If your business provides an interesting product or service to pilots, flight crews, aircraft, or users of the Timmer Heliport, you should consider listing it here.  To start the listing process, click on the button below
 
Add a business
 

Other Pages about Timmer Heliport

Update a link
 
Copyright © AirNav, LLC. All rights reserved. Privacy Policy  Contact